createdAt,value
2019-04-13T00:00:54.610Z,99.90
2019-04-13T00:03:34.987Z,99.90
2019-04-13T00:06:20.655Z,99.90
2019-04-13T00:09:01.158Z,99.90
2019-04-13T00:12:04.144Z,99.90
2019-04-13T00:14:45.112Z,99.90
2019-04-13T00:17:26.478Z,99.90
2019-04-13T00:20:07.430Z,99.90
2019-04-13T00:22:47.816Z,99.90
2019-04-13T00:25:29.013Z,99.90
2019-04-13T00:28:10.021Z,99.90
2019-04-13T00:30:51.077Z,99.90
2019-04-13T00:33:31.666Z,99.90
2019-04-13T00:36:12.137Z,99.90
2019-04-13T00:38:52.849Z,99.90
2019-04-13T00:41:33.773Z,99.90
2019-04-13T00:44:14.244Z,99.90
2019-04-13T00:46:55.152Z,99.90
2019-04-13T00:49:35.809Z,99.90
2019-04-13T00:52:16.485Z,99.90
2019-04-13T00:54:57.015Z,99.90
2019-04-13T00:57:37.924Z,99.90
2019-04-13T01:00:18.808Z,99.90
2019-04-13T01:02:59.471Z,99.90
2019-04-13T01:05:40.707Z,99.90
2019-04-13T01:08:22.038Z,99.90
2019-04-13T01:11:02.445Z,99.90
2019-04-13T01:16:25.620Z,99.90
2019-04-13T01:19:06.132Z,99.90
2019-04-13T01:21:47.485Z,99.90
2019-04-13T01:24:28.343Z,99.90
2019-04-13T01:27:09.214Z,99.90
2019-04-13T01:29:49.577Z,99.90
2019-04-13T01:32:30.153Z,99.90
2019-04-13T01:35:10.648Z,99.90
2019-04-13T01:37:51.084Z,99.90
2019-04-13T01:40:31.612Z,99.90
2019-04-13T01:43:12.602Z,99.90
2019-04-13T01:45:53.820Z,99.90
2019-04-13T01:48:34.428Z,99.90
2019-04-13T01:51:15.504Z,99.90
2019-04-13T01:53:56.656Z,99.90
2019-04-13T01:56:37.069Z,99.90
2019-04-13T01:59:17.948Z,99.90
2019-04-13T02:04:55.156Z,99.90
2019-04-13T02:10:33.999Z,99.90
2019-04-13T02:13:02.573Z,99.90
2019-04-13T02:15:31.128Z,99.90
2019-04-13T02:17:59.684Z,99.90
2019-04-13T02:20:47.611Z,99.90
2019-04-13T02:23:35.544Z,99.90
2019-04-13T02:26:23.444Z,99.90
2019-04-13T02:29:11.377Z,99.90
2019-04-13T02:31:59.270Z,99.90
2019-04-13T02:34:47.247Z,99.90
2019-04-13T02:37:35.111Z,99.90
2019-04-13T02:40:23.057Z,99.90
2019-04-13T02:43:11.029Z,99.90
2019-04-13T02:45:59.011Z,99.90
2019-04-13T02:48:46.886Z,99.90
2019-04-13T02:51:34.795Z,99.90
2019-04-13T02:54:03.382Z,99.90
2019-04-13T02:56:51.271Z,99.90
2019-04-13T03:02:33.132Z,99.90
2019-04-13T03:05:13.848Z,99.90
2019-04-13T03:07:54.491Z,99.90
2019-04-13T03:10:35.468Z,99.90
2019-04-13T03:13:16.002Z,99.90
2019-04-13T03:15:58.319Z,99.90
2019-04-13T03:18:58.420Z,99.90
2019-04-13T03:21:39.563Z,99.90
2019-04-13T03:24:20.628Z,99.90
2019-04-13T03:27:01.089Z,99.90
2019-04-13T03:29:42.228Z,99.90
2019-04-13T03:32:23.304Z,99.90
2019-04-13T03:35:03.996Z,99.90
2019-04-13T03:37:45.463Z,99.90
2019-04-13T03:40:14.095Z,99.90
2019-04-13T03:42:42.688Z,99.90
2019-04-13T03:45:11.510Z,99.90
2019-04-13T03:47:40.993Z,99.90
2019-04-13T03:50:10.618Z,99.90
2019-04-13T03:52:58.539Z,99.90
2019-04-13T03:58:53.336Z,99.90
2019-04-13T04:01:41.228Z,99.90
2019-04-13T04:04:29.157Z,99.90
2019-04-13T04:07:17.104Z,99.90
2019-04-13T04:09:45.701Z,99.90
2019-04-13T04:12:33.606Z,99.90
2019-04-13T04:18:16.428Z,99.90
2019-04-13T04:21:04.363Z,99.90
2019-04-13T04:23:52.260Z,99.90
2019-04-13T04:26:40.194Z,99.90
2019-04-13T04:29:28.104Z,99.90
2019-04-13T04:32:16.037Z,99.90
2019-04-13T04:38:18.844Z,99.90
2019-04-13T04:41:06.896Z,99.90
2019-04-13T04:43:54.808Z,99.90
2019-04-13T04:46:42.860Z,99.90
2019-04-13T04:49:46.708Z,99.90
2019-04-13T04:52:20.915Z,99.90
2019-04-13T04:55:20.659Z,99.90
2019-04-13T04:57:58.481Z,99.90
2019-04-13T05:00:46.436Z,99.90
2019-04-13T05:03:34.375Z,99.90
2019-04-13T05:06:15.651Z,99.90
2019-04-13T05:08:56.757Z,99.90
2019-04-13T05:11:37.172Z,99.90
2019-04-13T05:14:18.153Z,99.90
2019-04-13T05:16:58.901Z,99.90
2019-04-13T05:19:39.577Z,99.90
2019-04-13T05:22:26.095Z,99.90
2019-04-13T05:25:02.420Z,99.90
2019-04-13T05:30:26.429Z,99.90
2019-04-13T05:33:06.929Z,99.90
2019-04-13T05:35:48.138Z,99.90
2019-04-13T05:38:28.380Z,99.90
2019-04-13T05:41:16.315Z,99.90
2019-04-13T05:44:04.208Z,99.90
2019-04-13T05:46:52.156Z,99.90
2019-04-13T05:49:40.072Z,99.90
2019-04-13T05:52:27.999Z,99.90
2019-04-13T05:55:16.072Z,99.90
2019-04-13T05:58:04.068Z,99.90
2019-04-13T06:04:00.560Z,99.90
2019-04-13T06:06:59.408Z,99.90
2019-04-13T06:09:39.548Z,99.90
2019-04-13T06:12:27.557Z,99.90
2019-04-13T06:15:15.633Z,99.90
2019-04-13T06:18:07.000Z,99.90
2019-04-13T06:23:49.977Z,99.90
2019-04-13T06:26:35.732Z,99.90
2019-04-13T06:29:23.646Z,99.90
2019-04-13T06:35:25.652Z,99.90
2019-04-13T06:38:13.551Z,99.90
2019-04-13T06:41:01.486Z,99.90
2019-04-13T06:43:49.372Z,99.90
2019-04-13T06:46:37.379Z,99.90
2019-04-13T06:49:25.316Z,99.90
2019-04-13T06:52:13.244Z,99.90
2019-04-13T06:55:01.143Z,99.90
2019-04-13T06:57:49.069Z,99.90
2019-04-13T07:00:36.969Z,99.90
2019-04-13T07:03:26.572Z,99.90
2019-04-13T07:06:14.435Z,99.90
2019-04-13T07:09:14.569Z,99.90
2019-04-13T07:14:53.258Z,99.90
2019-04-13T07:17:40.560Z,99.90
2019-04-13T07:20:28.516Z,99.90
2019-04-13T07:23:16.439Z,99.90
2019-04-13T07:26:06.501Z,99.90
2019-04-13T07:34:56.280Z,99.90
2019-04-13T07:37:44.863Z,99.90
2019-04-13T07:40:34.260Z,99.90
2019-04-13T07:46:27.192Z,99.90
2019-04-13T07:49:05.739Z,99.90
2019-04-13T07:51:38.731Z,99.90
2019-04-13T07:54:07.635Z,99.90
2019-04-13T07:56:36.203Z,99.90
2019-04-13T07:59:24.131Z,99.90
2019-04-13T08:05:04.066Z,99.90
2019-04-13T08:07:49.971Z,99.90
2019-04-13T08:10:27.899Z,99.90
2019-04-13T08:13:08.768Z,99.90
2019-04-13T08:15:49.700Z,99.90
2019-04-13T08:18:49.263Z,99.90
2019-04-13T08:21:33.283Z,99.90
2019-04-13T08:24:13.332Z,99.90
2019-04-13T08:26:54.220Z,99.90
2019-04-13T08:29:34.596Z,99.90
2019-04-13T08:32:15.255Z,99.90
2019-04-13T08:34:57.540Z,99.90
2019-04-13T08:37:52.912Z,99.90
2019-04-13T08:40:21.926Z,99.90
2019-04-13T08:43:03.299Z,99.90
2019-04-13T08:45:45.027Z,99.90
2019-04-13T08:48:25.831Z,99.90
2019-04-13T08:51:06.923Z,99.90
2019-04-13T08:53:47.344Z,99.90
2019-04-13T08:56:31.025Z,99.90
2019-04-13T08:59:10.513Z,99.90
2019-04-13T09:01:51.238Z,99.90
2019-04-13T09:04:32.357Z,99.90
2019-04-13T09:07:14.955Z,99.90
2019-04-13T09:09:56.432Z,99.90
2019-04-13T09:12:38.856Z,99.90
2019-04-13T09:15:19.618Z,99.90
2019-04-13T09:18:20.477Z,99.90
2019-04-13T09:24:09.114Z,99.90
2019-04-13T09:26:49.515Z,99.90
2019-04-13T09:29:30.528Z,99.90
2019-04-13T09:32:10.908Z,99.90
2019-04-13T09:34:52.152Z,99.90
2019-04-13T09:37:32.812Z,99.90
2019-04-13T09:40:14.692Z,99.90
2019-04-13T09:42:55.293Z,99.90
2019-04-13T09:45:36.034Z,99.90
2019-04-13T09:48:16.834Z,99.90
2019-04-13T09:50:57.795Z,99.90
2019-04-13T09:53:39.092Z,99.90
2019-04-13T09:56:19.569Z,99.90
2019-04-13T09:58:59.949Z,99.90
2019-04-13T10:01:45.239Z,99.90
2019-04-13T10:04:22.690Z,99.90
2019-04-13T10:07:04.016Z,99.90
2019-04-13T10:09:44.865Z,99.90
2019-04-13T10:12:26.964Z,99.90
2019-04-13T10:15:26.712Z,99.90
2019-04-13T10:18:09.614Z,99.50
2019-04-13T10:20:50.362Z,99.40
2019-04-13T10:23:31.498Z,99.50
2019-04-13T10:26:15.786Z,99.80
2019-04-13T10:28:55.242Z,99.90
2019-04-13T10:31:35.792Z,99.50
2019-04-13T10:34:16.229Z,99.40
2019-04-13T10:36:56.837Z,99.80
2019-04-13T10:39:37.247Z,99.90
2019-04-13T10:42:05.936Z,99.90
2019-04-13T10:44:36.160Z,99.90
2019-04-13T10:47:43.296Z,99.90
2019-04-13T10:53:39.731Z,99.90
2019-04-13T10:56:27.638Z,99.90
2019-04-13T10:59:15.579Z,99.90
2019-04-13T11:02:03.512Z,99.90
2019-04-13T11:04:51.433Z,99.90
2019-04-13T11:07:39.360Z,99.90
2019-04-13T11:10:19.719Z,99.90
2019-04-13T11:13:00.320Z,99.90
2019-04-13T11:15:41.954Z,99.70
2019-04-13T11:18:23.508Z,99.30
2019-04-13T11:21:03.912Z,99.90
2019-04-13T11:23:46.159Z,99.90
2019-04-13T11:26:27.041Z,99.90
2019-04-13T11:29:10.790Z,99.90
2019-04-13T11:31:54.694Z,99.90
2019-04-13T11:34:33.221Z,99.90
2019-04-13T11:37:13.611Z,99.90
2019-04-13T11:39:54.556Z,99.90
2019-04-13T11:42:39.272Z,99.90
2019-04-13T11:45:22.868Z,99.80
2019-04-13T11:48:05.446Z,99.00
2019-04-13T11:50:51.153Z,98.80
2019-04-13T11:53:31.612Z,97.90
2019-04-13T11:56:12.539Z,98.20
2019-04-13T11:58:52.897Z,99.90
2019-04-13T12:01:52.518Z,99.90
2019-04-13T12:04:52.405Z,99.90
2019-04-13T12:10:28.547Z,99.90
2019-04-13T12:13:31.739Z,99.90
2019-04-13T12:16:17.222Z,99.90
2019-04-13T12:19:01.698Z,99.90
2019-04-13T12:22:01.203Z,99.90
2019-04-13T12:24:41.656Z,99.20
2019-04-13T12:27:22.737Z,98.90
2019-04-13T12:30:05.001Z,98.60
2019-04-13T12:32:47.237Z,99.50
2019-04-13T12:35:28.832Z,99.90
2019-04-13T12:38:10.510Z,99.90
2019-04-13T12:40:53.236Z,99.90
2019-04-13T12:43:34.053Z,99.90
2019-04-13T12:46:14.880Z,99.90
2019-04-13T12:48:56.048Z,99.90
2019-04-13T12:51:36.340Z,99.90
2019-04-13T12:54:17.222Z,99.90
2019-04-13T12:56:45.803Z,99.90
2019-04-13T12:59:14.851Z,99.90
2019-04-13T13:02:22.083Z,99.60
2019-04-13T13:05:29.472Z,98.90
2019-04-13T13:11:19.477Z,99.00
2019-04-13T13:14:00.308Z,98.80
2019-04-13T13:16:41.377Z,98.70
2019-04-13T13:19:22.440Z,98.20
2019-04-13T13:22:02.956Z,98.30
2019-04-13T13:24:43.870Z,98.60
2019-04-13T13:27:24.741Z,98.30
2019-04-13T13:30:05.691Z,97.50
2019-04-13T13:32:47.042Z,97.70
2019-04-13T13:35:27.476Z,97.50
2019-04-13T13:38:08.524Z,97.50
2019-04-13T13:40:49.282Z,96.70
2019-04-13T13:43:30.493Z,96.40
2019-04-13T13:46:11.475Z,95.90
2019-04-13T13:48:59.599Z,95.70
2019-04-13T13:51:55.830Z,96.00
2019-04-13T13:54:37.323Z,96.30
2019-04-13T14:00:51.396Z,98.50
2019-04-13T14:03:39.331Z,98.90
2019-04-13T14:06:27.257Z,98.60
2019-04-13T14:09:15.188Z,97.50
2019-04-13T14:11:56.424Z,97.50
2019-04-13T14:14:37.697Z,97.40
2019-04-13T14:17:18.964Z,98.90
2019-04-13T14:20:01.589Z,99.90
2019-04-13T14:22:41.921Z,99.90
2019-04-13T14:25:22.852Z,99.90
2019-04-13T14:28:03.225Z,99.90
2019-04-13T14:30:44.324Z,99.90
2019-04-13T14:33:25.276Z,99.90
2019-04-13T14:36:06.081Z,99.90
2019-04-13T14:38:47.172Z,99.90
2019-04-13T14:41:28.338Z,99.90
2019-04-13T14:44:08.826Z,99.90
2019-04-13T14:46:49.426Z,99.90
2019-04-13T14:49:29.946Z,99.90
2019-04-13T14:52:11.076Z,99.90
2019-04-13T14:54:52.995Z,99.90
2019-04-13T14:57:38.645Z,99.90
2019-04-13T15:00:17.014Z,99.90
2019-04-13T15:02:58.358Z,99.90
2019-04-13T15:05:39.200Z,99.90
2019-04-13T15:08:19.835Z,99.90
2019-04-13T15:11:16.000Z,99.90
2019-04-13T15:13:42.867Z,99.90
2019-04-13T15:16:26.315Z,99.90
2019-04-13T15:19:17.480Z,99.90
2019-04-13T15:21:50.606Z,99.90
2019-04-13T15:24:31.018Z,99.90
2019-04-13T15:27:11.505Z,99.90
2019-04-13T15:29:52.780Z,99.90
2019-04-13T15:32:34.147Z,99.90
2019-04-13T15:35:18.282Z,99.90
2019-04-13T15:37:58.215Z,99.90
2019-04-13T15:40:40.561Z,99.90
2019-04-13T15:43:28.184Z,99.90
2019-04-13T15:46:05.058Z,99.90
2019-04-13T15:48:47.333Z,99.90
2019-04-13T15:51:28.242Z,99.90
2019-04-13T15:54:10.170Z,99.90
2019-04-13T15:56:50.797Z,99.90
2019-04-13T15:59:31.073Z,99.90
2019-04-13T16:02:12.325Z,99.90
2019-04-13T16:04:43.883Z,99.90
2019-04-13T16:07:11.593Z,99.90
2019-04-13T16:09:41.721Z,99.90
2019-04-13T16:12:25.441Z,99.90
2019-04-13T16:15:07.631Z,99.90
2019-04-13T16:17:49.034Z,99.90
2019-04-13T16:20:31.572Z,99.90
2019-04-13T16:23:13.160Z,99.90
2019-04-13T16:25:53.735Z,99.90
2019-04-13T16:31:35.453Z,99.90
2019-04-13T16:34:23.801Z,99.90
2019-04-13T16:40:21.054Z,99.90
2019-04-13T16:42:50.821Z,99.90
2019-04-13T16:45:59.235Z,99.90
2019-04-13T16:49:13.154Z,99.90
2019-04-13T16:52:15.803Z,99.90
2019-04-13T16:55:24.457Z,99.90
2019-04-13T16:58:32.151Z,99.90
2019-04-13T17:04:48.805Z,99.90
2019-04-13T17:07:17.996Z,99.90
2019-04-13T17:09:47.810Z,99.90
2019-04-13T17:12:28.802Z,99.90
2019-04-13T17:14:47.762Z,99.90
2019-04-13T17:17:16.356Z,99.90
2019-04-13T17:19:53.437Z,99.90
2019-04-13T17:25:55.807Z,99.90
2019-04-13T17:29:02.946Z,99.90
2019-04-13T17:32:10.084Z,99.90
2019-04-13T17:38:07.009Z,99.90
2019-04-13T17:41:18.717Z,99.90
2019-04-13T17:44:24.554Z,99.90
2019-04-13T17:47:32.900Z,99.90
2019-04-13T17:50:40.866Z,99.90
2019-04-13T17:53:47.989Z,99.90
2019-04-13T17:59:55.045Z,99.90
2019-04-13T18:03:03.349Z,99.90
2019-04-13T18:09:10.104Z,99.90
2019-04-13T18:12:18.441Z,99.90
2019-04-13T18:18:08.488Z,99.90
2019-04-13T18:20:49.121Z,99.90
2019-04-13T18:23:29.758Z,99.90
2019-04-13T18:26:10.752Z,99.90
2019-04-13T18:28:52.189Z,99.90
2019-04-13T18:31:33.693Z,99.90
2019-04-13T18:34:16.019Z,99.90
2019-04-13T18:36:57.144Z,99.90
2019-04-13T18:39:38.420Z,99.90
2019-04-13T18:42:19.782Z,99.90
2019-04-13T18:45:01.774Z,99.90
2019-04-13T18:47:42.877Z,99.90
2019-04-13T18:50:24.442Z,99.90
2019-04-13T18:53:07.821Z,99.90
2019-04-13T18:55:48.073Z,99.90
2019-04-13T18:58:29.412Z,99.90
2019-04-13T19:01:11.510Z,99.90
2019-04-13T19:03:52.163Z,99.90
2019-04-13T19:06:32.776Z,99.90
2019-04-13T19:09:13.501Z,99.90
2019-04-13T19:11:52.420Z,99.90
2019-04-13T19:14:33.635Z,99.90
2019-04-13T19:17:14.193Z,99.90
2019-04-13T19:19:54.740Z,99.90
2019-04-13T19:22:35.950Z,99.90
2019-04-13T19:25:17.252Z,99.90
2019-04-13T19:27:57.633Z,99.90
2019-04-13T19:30:38.862Z,99.90
2019-04-13T19:33:19.457Z,99.90
2019-04-13T19:35:59.992Z,99.90
2019-04-13T19:38:40.691Z,99.90
2019-04-13T19:41:21.889Z,99.90
2019-04-13T19:44:02.430Z,99.90
2019-04-13T19:46:43.556Z,99.90
2019-04-13T19:49:24.757Z,99.90
2019-04-13T19:52:10.189Z,99.90
2019-04-13T19:54:51.753Z,99.90
2019-04-13T19:57:33.215Z,99.90
2019-04-13T20:00:15.481Z,99.90
2019-04-13T20:02:44.461Z,99.90
2019-04-13T20:05:13.512Z,99.90
2019-04-13T20:07:42.480Z,99.90
2019-04-13T20:10:11.082Z,99.90
2019-04-13T20:15:59.540Z,99.90
2019-04-13T20:18:41.191Z,99.90
2019-04-13T20:21:22.162Z,99.90
2019-04-13T20:24:03.542Z,99.90
2019-04-13T20:26:44.912Z,99.90
2019-04-13T20:29:14.244Z,99.90
2019-04-13T20:31:42.768Z,99.90
2019-04-13T20:34:12.048Z,99.90
2019-04-13T20:36:41.450Z,99.90
2019-04-13T20:39:11.366Z,99.90
2019-04-13T20:41:48.903Z,99.90
2019-04-13T20:44:14.162Z,99.90
2019-04-13T20:47:00.832Z,99.90
2019-04-13T20:49:42.845Z,99.90
2019-04-13T20:52:23.456Z,99.90
2019-04-13T20:55:04.502Z,99.90
2019-04-13T20:57:45.658Z,99.90
2019-04-13T21:00:27.102Z,99.90
2019-04-13T21:03:08.076Z,99.90
2019-04-13T21:05:49.259Z,99.90
2019-04-13T21:08:30.164Z,99.90
2019-04-13T21:11:10.856Z,99.90
2019-04-13T21:14:02.593Z,99.90
2019-04-13T21:16:34.501Z,99.90
2019-04-13T21:19:15.392Z,99.90
2019-04-13T21:21:56.455Z,99.90
2019-04-13T21:24:37.659Z,99.90
2019-04-13T21:27:18.292Z,99.90
2019-04-13T21:29:58.994Z,99.90
2019-04-13T21:32:40.048Z,99.90
2019-04-13T21:35:21.270Z,99.90
2019-04-13T21:38:02.383Z,99.90
2019-04-13T21:40:43.041Z,99.90
2019-04-13T21:43:24.224Z,99.90
2019-04-13T21:46:07.300Z,99.90
2019-04-13T21:48:48.142Z,99.90
2019-04-13T21:51:48.762Z,99.90
2019-04-13T21:54:31.975Z,99.90
2019-04-13T21:57:13.347Z,99.90
2019-04-13T21:59:54.569Z,99.90
2019-04-13T22:02:36.019Z,99.90
2019-04-13T22:05:16.470Z,99.90
2019-04-13T22:07:57.494Z,99.90
2019-04-13T22:10:37.980Z,99.90
2019-04-13T22:13:18.724Z,99.90
2019-04-13T22:15:59.483Z,99.90
2019-04-13T22:18:41.032Z,99.90
2019-04-13T22:21:22.031Z,99.90
2019-04-13T22:24:02.846Z,99.90
2019-04-13T22:26:43.851Z,99.90
2019-04-13T22:29:29.270Z,99.90
2019-04-13T22:32:12.049Z,99.90
2019-04-13T22:37:47.069Z,99.90
2019-04-13T22:40:27.938Z,99.90
2019-04-13T22:43:08.921Z,99.90
2019-04-13T22:45:49.644Z,99.90
2019-04-13T22:48:35.651Z,99.90
2019-04-13T22:51:35.905Z,99.90
2019-04-13T22:54:23.415Z,99.90
2019-04-13T22:57:30.633Z,99.90
2019-04-13T23:06:24.927Z,99.90
2019-04-13T23:09:14.935Z,99.90
2019-04-13T23:12:03.474Z,99.90
2019-04-13T23:14:59.680Z,99.90
2019-04-13T23:17:41.886Z,99.90
2019-04-13T23:20:30.558Z,99.90
2019-04-13T23:23:18.465Z,99.90
2019-04-13T23:25:48.416Z,99.90
2019-04-13T23:28:17.459Z,99.90
2019-04-13T23:30:46.982Z,99.90
2019-04-13T23:33:15.564Z,99.90
2019-04-13T23:35:45.170Z,99.90
2019-04-13T23:38:33.240Z,99.90
2019-04-13T23:41:23.276Z,99.90
2019-04-13T23:44:13.354Z,99.90
2019-04-13T23:47:01.820Z,99.90
2019-04-13T23:49:49.786Z,99.90
2019-04-13T23:52:37.756Z,99.90
